createdAt,value
2024-02-05T00:00:07.832Z,8.84
2024-02-05T00:01:07.883Z,8.85
2024-02-05T00:02:07.800Z,8.85
2024-02-05T00:03:07.797Z,8.85
2024-02-05T00:04:07.803Z,8.86
2024-02-05T00:05:07.783Z,8.86
2024-02-05T00:06:07.780Z,8.87
2024-02-05T00:07:07.792Z,8.88
2024-02-05T00:08:07.846Z,8.88
2024-02-05T00:09:07.718Z,8.89
2024-02-05T00:10:07.766Z,8.89
2024-02-05T00:11:07.712Z,8.90
2024-02-05T00:12:07.677Z,8.90
2024-02-05T00:13:07.678Z,8.91
2024-02-05T00:14:07.656Z,8.91
2024-02-05T00:15:07.657Z,8.92
2024-02-05T00:16:07.658Z,8.92
2024-02-05T00:17:07.606Z,8.93
2024-02-05T00:18:07.619Z,8.93
2024-02-05T00:19:07.688Z,8.95
2024-02-05T00:20:07.625Z,8.97
2024-02-05T00:21:07.567Z,9.00
2024-02-05T00:22:07.598Z,9.03
2024-02-05T00:23:07.535Z,9.05
2024-02-05T00:24:07.557Z,9.07
2024-02-05T00:25:07.559Z,9.08
2024-02-05T00:26:07.503Z,9.10
2024-02-05T00:27:07.485Z,9.10
2024-02-05T00:28:07.539Z,9.11
2024-02-05T00:29:07.468Z,9.11
2024-02-05T00:30:07.453Z,9.12
2024-02-05T00:31:07.470Z,9.12
2024-02-05T00:32:07.418Z,9.12
2024-02-05T00:33:07.508Z,9.12
2024-02-05T00:34:07.487Z,9.11
2024-02-05T00:35:07.381Z,9.10
2024-02-05T00:36:07.413Z,9.10
2024-02-05T00:37:07.360Z,9.10
2024-02-05T00:38:07.335Z,9.11
2024-02-05T00:39:07.336Z,9.11
2024-02-05T00:40:07.517Z,9.10
2024-02-05T00:41:07.306Z,9.10
2024-02-05T00:42:07.304Z,9.09
2024-02-05T00:43:07.286Z,9.09
2024-02-05T00:44:07.264Z,9.08
2024-02-05T00:45:07.247Z,9.08
2024-02-05T00:46:07.371Z,9.07
2024-02-05T00:47:07.278Z,9.08
2024-02-05T00:48:07.279Z,9.08
2024-02-05T00:49:07.310Z,9.08
2024-02-05T00:50:07.426Z,9.08
2024-02-05T00:51:07.262Z,9.08
2024-02-05T00:52:07.277Z,9.08
2024-02-05T00:53:07.219Z,9.09
2024-02-05T00:54:07.190Z,9.09
2024-02-05T00:55:07.304Z,9.09
2024-02-05T00:56:07.291Z,9.08
2024-02-05T00:57:07.170Z,9.08
2024-02-05T00:58:07.173Z,9.08
2024-02-05T00:59:07.104Z,9.08
2024-02-05T01:00:07.080Z,9.08
2024-02-05T01:01:07.164Z,9.08
2024-02-05T01:02:07.183Z,9.08
2024-02-05T01:03:07.041Z,9.08
2024-02-05T01:04:07.213Z,9.08
2024-02-05T01:05:07.181Z,9.08
2024-02-05T01:06:07.097Z,9.08
2024-02-05T01:07:07.094Z,9.08
2024-02-05T01:08:07.041Z,9.08
2024-02-05T01:09:06.969Z,9.09
2024-02-05T01:10:06.993Z,9.09
2024-02-05T01:11:06.934Z,9.09
2024-02-05T01:12:06.943Z,9.09
2024-02-05T01:13:06.940Z,9.09
2024-02-05T01:14:06.905Z,9.09
2024-02-05T01:15:06.881Z,9.09
2024-02-05T01:16:06.892Z,9.08
2024-02-05T01:17:06.861Z,9.08
2024-02-05T01:18:06.912Z,9.08
2024-02-05T01:19:06.887Z,9.08
2024-02-05T01:20:06.880Z,9.08
2024-02-05T01:21:06.820Z,9.08
2024-02-05T01:22:06.856Z,9.08
2024-02-05T01:23:06.782Z,9.10
2024-02-05T01:24:06.787Z,9.10
2024-02-05T01:25:06.823Z,9.11
2024-02-05T01:26:06.747Z,9.11
2024-02-05T01:27:06.768Z,9.11
2024-02-05T01:28:06.749Z,9.11
2024-02-05T01:29:06.713Z,9.10
2024-02-05T01:30:06.697Z,9.10
2024-02-05T01:31:06.749Z,9.10
2024-02-05T01:32:06.668Z,9.09
2024-02-05T01:33:06.705Z,9.09
2024-02-05T01:34:06.761Z,9.08
2024-02-05T01:35:06.683Z,9.08
2024-02-05T01:36:06.645Z,9.07
2024-02-05T01:37:06.629Z,9.06
2024-02-05T01:38:06.600Z,9.06
2024-02-05T01:39:06.586Z,9.05
2024-02-05T01:40:06.641Z,9.05
2024-02-05T01:41:06.567Z,9.04
2024-02-05T01:42:06.553Z,9.04
2024-02-05T01:43:06.547Z,9.03
2024-02-05T01:44:06.506Z,9.03
2024-02-05T01:45:06.510Z,9.03
2024-02-05T01:46:06.582Z,9.02
2024-02-05T01:47:06.482Z,9.02
2024-02-05T01:48:06.563Z,9.01
2024-02-05T01:49:06.513Z,9.00
2024-02-05T01:50:06.496Z,8.99
2024-02-05T01:51:06.462Z,8.98
2024-02-05T01:52:06.485Z,8.98
2024-02-05T01:53:06.415Z,8.97
2024-02-05T01:54:06.417Z,8.96
2024-02-05T01:55:06.411Z,8.96
2024-02-05T01:56:06.359Z,8.95
2024-02-05T01:57:06.349Z,8.94
2024-02-05T01:58:06.420Z,8.93
2024-02-05T01:59:06.331Z,8.93
2024-02-05T02:00:06.320Z,8.92
2024-02-05T02:01:06.361Z,8.92
2024-02-05T02:02:06.327Z,8.92
2024-02-05T02:03:06.286Z,8.91
2024-02-05T02:04:06.322Z,8.91
2024-02-05T02:05:06.373Z,8.91
2024-02-05T02:06:06.247Z,8.91
2024-02-05T02:07:06.316Z,8.91
2024-02-05T02:08:06.222Z,8.91
2024-02-05T02:09:06.208Z,8.91
2024-02-05T02:10:06.215Z,8.91
2024-02-05T02:11:06.183Z,8.91
2024-02-05T02:12:06.159Z,8.91
2024-02-05T02:13:06.375Z,8.92
2024-02-05T02:14:06.138Z,8.92
2024-02-05T02:15:06.147Z,8.91
2024-02-05T02:16:06.148Z,8.91
2024-02-05T02:17:06.111Z,8.91
2024-02-05T02:18:06.126Z,8.91
2024-02-05T02:19:06.173Z,8.90
2024-02-05T02:20:06.174Z,8.90
2024-02-05T02:21:06.048Z,8.89
2024-02-05T02:22:06.085Z,8.88
2024-02-05T02:23:06.041Z,8.88
2024-02-05T02:24:06.017Z,8.88
2024-02-05T02:25:06.007Z,8.88
2024-02-05T02:26:05.999Z,8.87
2024-02-05T02:27:05.970Z,8.87
2024-02-05T02:28:05.959Z,8.87
2024-02-05T02:29:05.952Z,8.87
2024-02-05T02:30:05.947Z,8.86
2024-02-05T02:31:05.959Z,8.86
2024-02-05T02:32:05.948Z,8.85
2024-02-05T02:33:06.004Z,8.85
2024-02-05T02:34:06.066Z,8.84
2024-02-05T02:35:05.904Z,8.83
2024-02-05T02:36:05.859Z,8.82
2024-02-05T02:37:05.925Z,8.80
2024-02-05T02:38:05.824Z,8.79
2024-02-05T02:39:05.846Z,8.78
2024-02-05T02:40:05.861Z,8.77
2024-02-05T02:41:05.798Z,8.77
2024-02-05T02:42:05.805Z,8.76
2024-02-05T02:43:05.801Z,8.76
2024-02-05T02:44:05.789Z,8.75
2024-02-05T02:45:05.754Z,8.74
2024-02-05T02:46:05.785Z,8.74
2024-02-05T02:47:05.720Z,8.74
2024-02-05T02:48:05.828Z,8.74
2024-02-05T02:49:05.758Z,8.73
2024-02-05T02:50:05.684Z,8.72
2024-02-05T02:51:05.669Z,8.71
2024-02-05T02:52:05.726Z,8.71
2024-02-05T02:53:05.656Z,8.70
2024-02-05T02:54:05.650Z,8.69
2024-02-05T02:55:05.725Z,8.68
2024-02-05T02:56:05.599Z,8.67
2024-02-05T02:57:05.596Z,8.66
2024-02-05T02:58:05.626Z,8.65
2024-02-05T02:59:05.575Z,8.65
2024-02-05T03:00:05.541Z,8.64
2024-02-05T03:01:05.661Z,8.64
2024-02-05T03:02:05.602Z,8.63
2024-02-05T03:03:05.585Z,8.62
2024-02-05T03:04:05.594Z,8.61
2024-02-05T03:05:05.501Z,8.60
2024-02-05T03:06:05.599Z,8.58
2024-02-05T03:07:05.521Z,8.57
2024-02-05T03:08:05.464Z,8.57
2024-02-05T03:09:05.447Z,8.57
2024-02-05T03:10:05.482Z,8.57
2024-02-05T03:11:05.432Z,8.56
2024-02-05T03:12:05.395Z,8.56
2024-02-05T03:13:05.487Z,8.55
2024-02-05T03:14:05.370Z,8.55
2024-02-05T03:15:05.373Z,8.55
2024-02-05T03:16:05.367Z,8.54
2024-02-05T03:17:05.333Z,8.55
2024-02-05T03:18:05.378Z,8.54
2024-02-05T03:19:05.463Z,8.54
2024-02-05T03:20:05.423Z,8.53
2024-02-05T03:21:05.300Z,8.52
2024-02-05T03:22:05.388Z,8.52
2024-02-05T03:23:08.984Z,8.51
2024-02-05T03:24:05.245Z,8.51
2024-02-05T03:25:05.340Z,8.51
2024-02-05T03:26:05.217Z,8.51
2024-02-05T03:27:05.218Z,8.51
2024-02-05T03:28:05.244Z,8.51
2024-02-05T03:29:05.198Z,8.52
2024-02-05T03:30:05.214Z,8.52
2024-02-05T03:31:05.199Z,8.53
2024-02-05T03:32:05.238Z,8.53
2024-02-05T03:33:05.143Z,8.53
2024-02-05T03:34:05.235Z,8.53
2024-02-05T03:35:05.142Z,8.54
2024-02-05T03:36:05.093Z,8.54
2024-02-05T03:37:05.100Z,8.53
2024-02-05T03:38:05.064Z,8.52
2024-02-05T03:39:05.055Z,8.50
2024-02-05T03:40:05.076Z,8.48
2024-02-05T03:41:05.045Z,8.46
2024-02-05T03:42:05.045Z,8.44
2024-02-05T03:43:05.056Z,8.43
2024-02-05T03:44:05.027Z,8.41
2024-02-05T03:45:04.986Z,8.40
2024-02-05T03:46:05.014Z,8.39
2024-02-05T03:47:04.963Z,8.37
2024-02-05T03:48:05.004Z,8.34
2024-02-05T03:49:04.978Z,8.32
2024-02-05T03:50:05.000Z,8.30
2024-02-05T03:51:04.919Z,8.28
2024-02-05T03:52:04.944Z,8.27
2024-02-05T03:53:04.875Z,8.25
2024-02-05T03:54:04.897Z,8.24
2024-02-05T03:55:04.930Z,8.23
2024-02-05T03:56:04.842Z,8.22
2024-02-05T03:57:04.842Z,8.21
2024-02-05T03:58:04.885Z,8.21
2024-02-05T03:59:04.822Z,8.20
2024-02-05T04:00:04.778Z,8.20
2024-02-05T04:01:04.814Z,8.19
2024-02-05T04:02:04.864Z,8.17
2024-02-05T04:03:04.840Z,8.15
2024-02-05T04:04:04.800Z,8.13
2024-02-05T04:05:04.758Z,8.13
2024-02-05T04:06:04.769Z,8.12
2024-02-05T04:07:04.716Z,8.11
2024-02-05T04:08:04.694Z,8.11
2024-02-05T04:09:04.672Z,8.10
2024-02-05T04:10:04.761Z,8.10
2024-02-05T04:11:04.660Z,8.08
2024-02-05T04:12:04.644Z,8.07
2024-02-05T04:13:04.641Z,8.05
2024-02-05T04:14:04.615Z,8.03
2024-02-05T04:15:04.616Z,8.02
2024-02-05T04:16:04.594Z,8.01
2024-02-05T04:17:04.600Z,7.99
2024-02-05T04:18:04.605Z,7.98
2024-02-05T04:19:04.659Z,7.97
2024-02-05T04:20:04.608Z,7.95
2024-02-05T04:21:04.514Z,7.93
2024-02-05T04:22:04.554Z,7.91
2024-02-05T04:23:06.868Z,7.90
2024-02-05T04:24:04.469Z,7.88
2024-02-05T04:25:04.506Z,7.87
2024-02-05T04:26:04.455Z,7.86
2024-02-05T04:27:04.464Z,7.85
2024-02-05T04:28:04.529Z,7.84
2024-02-05T04:29:04.423Z,7.82
2024-02-05T04:30:04.423Z,7.80
2024-02-05T04:31:04.469Z,7.78
2024-02-05T04:32:04.381Z,7.77
2024-02-05T04:33:06.374Z,7.75
2024-02-05T04:34:04.416Z,7.73
2024-02-05T04:35:04.547Z,7.73
2024-02-05T04:36:04.321Z,7.72
2024-02-05T04:37:04.355Z,7.71
2024-02-05T04:38:04.311Z,7.69
2024-02-05T04:39:04.284Z,7.67
2024-02-05T04:40:04.328Z,7.64
2024-02-05T04:41:04.268Z,7.63
2024-02-05T04:42:04.244Z,7.61
2024-02-05T04:43:04.281Z,7.59
2024-02-05T04:44:04.228Z,7.56
2024-02-05T04:45:04.254Z,7.53
2024-02-05T04:46:04.271Z,7.51
2024-02-05T04:47:04.189Z,7.50
2024-02-05T04:48:04.200Z,7.48
2024-02-05T04:49:04.293Z,7.47
2024-02-05T04:50:04.270Z,7.46
2024-02-05T04:51:04.161Z,7.45
2024-02-05T04:52:04.179Z,7.44
2024-02-05T04:53:04.116Z,7.44
2024-02-05T04:54:04.092Z,7.43
2024-02-05T04:55:04.188Z,7.42
2024-02-05T04:56:04.100Z,7.41
2024-02-05T04:57:04.059Z,7.41
2024-02-05T04:58:04.080Z,7.40
2024-02-05T04:59:04.035Z,7.39
2024-02-05T05:00:04.046Z,7.38
2024-02-05T05:01:04.205Z,7.37
2024-02-05T05:02:04.277Z,7.36
2024-02-05T05:03:03.990Z,7.35
2024-02-05T05:04:04.019Z,7.34
2024-02-05T05:05:04.002Z,7.34
2024-02-05T05:06:03.951Z,7.32
2024-02-05T05:07:04.039Z,7.30
2024-02-05T05:08:03.914Z,7.28
2024-02-05T05:09:03.956Z,7.26
2024-02-05T05:10:03.926Z,7.26
2024-02-05T05:11:03.900Z,7.25
2024-02-05T05:12:03.876Z,7.24
2024-02-05T05:13:03.850Z,7.23
2024-02-05T05:14:03.866Z,7.21
2024-02-05T05:15:03.841Z,7.20
2024-02-05T05:16:03.888Z,7.18
2024-02-05T05:17:03.812Z,7.16
2024-02-05T05:18:03.846Z,7.14
2024-02-05T05:19:03.915Z,7.12
2024-02-05T05:20:03.792Z,7.10
2024-02-05T05:21:03.755Z,7.10
2024-02-05T05:22:03.761Z,7.10
2024-02-05T05:23:03.726Z,7.10
2024-02-05T05:24:03.712Z,7.08
2024-02-05T05:25:03.718Z,7.07
2024-02-05T05:26:03.700Z,7.06
2024-02-05T05:27:03.672Z,7.06
2024-02-05T05:28:03.686Z,7.05
2024-02-05T05:29:03.673Z,7.05
2024-02-05T05:30:03.636Z,7.05
2024-02-05T05:31:03.624Z,7.04
2024-02-05T05:32:03.593Z,7.03
2024-02-05T05:33:03.683Z,7.01
2024-02-05T05:34:03.641Z,6.99
2024-02-05T05:35:03.623Z,6.98
2024-02-05T05:36:03.565Z,6.97
2024-02-05T05:37:03.562Z,6.96
2024-02-05T05:38:03.623Z,6.95
2024-02-05T05:39:03.531Z,6.95
2024-02-05T05:40:03.523Z,6.94
2024-02-05T05:41:03.484Z,6.92
2024-02-05T05:42:03.467Z,6.91
2024-02-05T05:43:03.544Z,6.91
2024-02-05T05:44:03.460Z,6.89
2024-02-05T05:45:03.541Z,6.86
2024-02-05T05:46:04.396Z,6.84
2024-02-05T05:47:03.430Z,6.82
2024-02-05T05:48:03.422Z,6.80
2024-02-05T05:49:03.454Z,6.78
2024-02-05T05:50:03.549Z,6.77
2024-02-05T05:51:03.348Z,6.76
2024-02-05T05:52:03.420Z,6.76
2024-02-05T05:53:03.329Z,6.76
2024-02-05T05:54:03.319Z,6.75
2024-02-05T05:55:03.416Z,6.75
2024-02-05T05:56:03.289Z,6.75
2024-02-05T05:57:03.267Z,6.74
2024-02-05T05:58:03.340Z,6.74
2024-02-05T05:59:03.264Z,6.74
2024-02-05T06:00:03.301Z,6.73
2024-02-05T06:01:03.317Z,6.71
2024-02-05T06:02:03.374Z,6.69
2024-02-05T06:03:03.206Z,6.67
2024-02-05T06:04:03.297Z,6.66
2024-02-05T06:05:04.037Z,6.66
2024-02-05T06:06:03.188Z,6.66
2024-02-05T06:07:03.203Z,6.64
2024-02-05T06:08:03.138Z,6.62
2024-02-05T06:09:03.117Z,6.60
2024-02-05T06:10:03.202Z,6.58
2024-02-05T06:11:03.099Z,6.56
2024-02-05T06:12:03.085Z,6.54
2024-02-05T06:13:03.094Z,6.53
2024-02-05T06:14:03.124Z,6.52
2024-02-05T06:15:03.042Z,6.50
2024-02-05T06:16:03.179Z,6.49
2024-02-05T06:17:03.055Z,6.48
2024-02-05T06:18:03.074Z,6.46
2024-02-05T06:19:03.059Z,6.44
2024-02-05T06:20:04.089Z,6.44
2024-02-05T06:21:03.002Z,6.43
2024-02-05T06:22:03.020Z,6.43
2024-02-05T06:23:02.947Z,6.43
2024-02-05T06:24:02.939Z,6.44
2024-02-05T06:25:03.025Z,6.45
2024-02-05T06:26:02.927Z,6.46
2024-02-05T06:27:02.903Z,6.47
2024-02-05T06:28:03.975Z,6.49
2024-02-05T06:29:02.904Z,6.51
2024-02-05T06:30:02.843Z,6.52
2024-02-05T06:31:02.867Z,6.52
2024-02-05T06:32:02.819Z,6.52
2024-02-05T06:33:02.831Z,6.51
2024-02-05T06:34:05.662Z,6.49
2024-02-05T06:35:02.989Z,6.48
2024-02-05T06:36:02.788Z,6.46
2024-02-05T06:37:02.863Z,6.44
2024-02-05T06:38:02.745Z,6.43
2024-02-05T06:39:02.734Z,6.43
2024-02-05T06:40:02.811Z,6.43
2024-02-05T06:41:02.712Z,6.42
2024-02-05T06:42:02.693Z,6.41
2024-02-05T06:43:02.775Z,6.39
2024-02-05T06:44:02.722Z,6.37
2024-02-05T06:45:02.684Z,6.35
2024-02-05T06:46:02.712Z,6.33
2024-02-05T06:47:02.792Z,6.31
2024-02-05T06:48:02.694Z,6.30
2024-02-05T06:49:02.783Z,6.30
2024-02-05T06:50:02.675Z,6.30
2024-02-05T06:51:02.567Z,6.31
2024-02-05T06:52:02.648Z,6.34
2024-02-05T06:53:02.538Z,6.38
2024-02-05T06:54:02.531Z,6.42
2024-02-05T06:55:02.603Z,6.45
2024-02-05T06:56:02.514Z,6.47
2024-02-05T06:57:02.931Z,6.48
2024-02-05T06:58:03.135Z,6.49
2024-02-05T06:59:03.044Z,6.49
2024-02-05T07:00:02.741Z,6.49
2024-02-05T07:01:02.901Z,6.48
2024-02-05T07:02:02.714Z,6.45
2024-02-05T07:03:02.964Z,6.42
2024-02-05T07:04:03.904Z,6.41
2024-02-05T07:05:04.089Z,6.40
2024-02-05T07:06:03.581Z,6.40
2024-02-05T07:07:04.363Z,6.41
2024-02-05T07:08:02.593Z,6.41
2024-02-05T07:09:02.522Z,6.42
2024-02-05T07:10:02.644Z,6.41
2024-02-05T07:11:02.420Z,6.40
2024-02-05T07:12:05.661Z,6.40
2024-02-05T07:13:02.532Z,6.40
2024-02-05T07:14:02.661Z,6.39
2024-02-05T07:15:04.039Z,6.39
2024-02-05T07:16:03.727Z,6.40
2024-02-05T07:17:02.561Z,6.40
2024-02-05T07:18:02.518Z,6.41
2024-02-05T07:19:02.330Z,6.41
2024-02-05T07:20:04.984Z,6.42
2024-02-05T07:21:03.531Z,6.42
2024-02-05T07:22:02.418Z,6.42
2024-02-05T07:23:02.436Z,6.41
2024-02-05T07:24:04.133Z,6.40
2024-02-05T07:25:02.413Z,6.39
2024-02-05T07:26:02.724Z,6.38
2024-02-05T07:27:04.066Z,6.37
2024-02-05T07:28:04.477Z,6.36
2024-02-05T07:29:02.193Z,6.35
2024-02-05T07:30:02.554Z,6.34
2024-02-05T07:31:03.972Z,6.33
2024-02-05T07:32:02.726Z,6.33
2024-02-05T07:33:02.196Z,6.32
2024-02-05T07:34:02.827Z,6.30
2024-02-05T07:35:02.333Z,6.30
2024-02-05T07:36:04.111Z,6.30
2024-02-05T07:37:02.038Z,6.31
2024-02-05T07:38:02.812Z,6.32
2024-02-05T07:39:03.649Z,6.33
2024-02-05T07:40:03.126Z,6.34
2024-02-05T07:41:15.544Z,6.34
2024-02-05T07:42:02.845Z,6.33
2024-02-05T07:43:11.232Z,6.33
2024-02-05T07:44:02.488Z,6.33
2024-02-05T07:45:02.813Z,6.32
2024-02-05T07:46:03.172Z,6.32
2024-02-05T07:47:02.643Z,6.33
2024-02-05T07:48:05.265Z,6.32
2024-02-05T07:49:03.460Z,6.32
2024-02-05T07:50:04.537Z,6.31
2024-02-05T07:51:01.984Z,6.30
2024-02-05T07:52:04.867Z,6.31
2024-02-05T07:53:02.038Z,6.31
2024-02-05T07:54:03.129Z,6.32
2024-02-05T07:55:05.561Z,6.33
2024-02-05T07:56:04.759Z,6.34
2024-02-05T07:57:01.952Z,6.35
2024-02-05T07:58:01.964Z,6.36
2024-02-05T07:59:03.591Z,6.37
2024-02-05T08:00:02.667Z,6.37
2024-02-05T08:01:02.612Z,6.36
2024-02-05T08:02:01.771Z,6.35
2024-02-05T08:03:01.766Z,6.34
2024-02-05T08:04:01.750Z,6.33
2024-02-05T08:05:04.323Z,6.32
2024-02-05T08:06:04.010Z,6.31
2024-02-05T08:07:03.368Z,6.31
2024-02-05T08:08:02.633Z,6.30
2024-02-05T08:09:02.875Z,6.29
2024-02-05T08:10:02.024Z,6.28
2024-02-05T08:11:02.374Z,6.27
2024-02-05T08:12:03.864Z,6.25
2024-02-05T08:13:02.088Z,6.24
2024-02-05T08:14:01.653Z,6.24
2024-02-05T08:15:03.969Z,6.24
2024-02-05T08:16:01.656Z,6.24
2024-02-05T08:17:09.164Z,6.25
2024-02-05T08:18:02.161Z,6.25
2024-02-05T08:19:02.856Z,6.25
2024-02-05T08:20:04.969Z,6.24
2024-02-05T08:21:02.317Z,6.23
2024-02-05T08:22:01.959Z,6.23
2024-02-05T08:23:01.927Z,6.24
2024-02-05T08:24:01.445Z,6.25
2024-02-05T08:25:01.456Z,6.26
2024-02-05T08:26:01.393Z,6.27
2024-02-05T08:27:01.424Z,6.29
2024-02-05T08:28:01.373Z,6.31
2024-02-05T08:29:01.348Z,6.33
2024-02-05T08:30:01.375Z,6.35
2024-02-05T08:31:01.328Z,6.37
2024-02-05T08:32:01.257Z,6.39
2024-02-05T08:33:01.369Z,6.42
2024-02-05T08:34:01.374Z,6.45
2024-02-05T08:35:01.531Z,6.48
2024-02-05T08:36:01.233Z,6.49
2024-02-05T08:37:01.258Z,6.51
2024-02-05T08:38:01.254Z,6.51
2024-02-05T08:39:01.179Z,6.51
2024-02-05T08:40:01.279Z,6.51
2024-02-05T08:41:01.244Z,6.50
2024-02-05T08:42:09.358Z,6.49
2024-02-05T08:43:01.169Z,6.48
2024-02-05T08:44:01.225Z,6.48
2024-02-05T08:45:03.495Z,6.49
2024-02-05T08:46:01.206Z,6.50
2024-02-05T08:47:01.113Z,6.51
2024-02-05T08:48:01.119Z,6.52
2024-02-05T08:49:01.175Z,6.53
2024-02-05T08:50:01.278Z,6.55
2024-02-05T08:51:01.374Z,6.56
2024-02-05T08:52:02.082Z,6.58
2024-02-05T08:53:01.202Z,6.60
2024-02-05T08:54:01.003Z,6.63
2024-02-05T08:55:01.020Z,6.67
2024-02-05T08:56:01.159Z,6.71
2024-02-05T08:57:00.945Z,6.74
2024-02-05T08:58:00.969Z,6.75
2024-02-05T08:59:01.015Z,6.75
2024-02-05T09:00:01.017Z,6.75
2024-02-05T09:01:01.161Z,6.74
2024-02-05T09:02:01.080Z,6.73
2024-02-05T09:03:00.928Z,6.72
2024-02-05T09:04:00.872Z,6.72
2024-02-05T09:05:00.841Z,6.72
2024-02-05T09:06:01.010Z,6.72
2024-02-05T09:07:00.884Z,6.73
2024-02-05T09:08:00.821Z,6.74
2024-02-05T09:09:00.785Z,6.75
2024-02-05T09:10:00.888Z,6.77
2024-02-05T09:11:00.741Z,6.78
2024-02-05T09:12:05.996Z,6.79
2024-02-05T09:13:00.785Z,6.81
2024-02-05T09:14:00.696Z,6.84
2024-02-05T09:15:00.794Z,6.87
2024-02-05T09:16:00.885Z,6.91
2024-02-05T09:17:00.936Z,6.95
2024-02-05T09:18:00.789Z,7.00
2024-02-05T09:19:00.892Z,7.03
2024-02-05T09:20:00.831Z,7.06
2024-02-05T09:21:00.613Z,7.08
2024-02-05T09:22:00.853Z,7.09
2024-02-05T09:23:00.721Z,7.11
2024-02-05T09:24:00.630Z,7.14
2024-02-05T09:25:00.648Z,7.15
2024-02-05T09:26:00.616Z,7.14
2024-02-05T09:27:00.654Z,7.15
2024-02-05T09:28:00.779Z,7.16
2024-02-05T09:29:00.585Z,7.17
2024-02-05T09:30:00.618Z,7.18
2024-02-05T09:31:08.973Z,7.18
2024-02-05T09:32:00.664Z,7.18
2024-02-05T09:33:00.548Z,7.18
2024-02-05T09:34:00.525Z,7.19
2024-02-05T09:35:00.580Z,7.20
2024-02-05T09:36:00.519Z,7.23
2024-02-05T09:37:00.503Z,7.26
2024-02-05T09:38:00.492Z,7.28
2024-02-05T09:39:00.621Z,7.29
2024-02-05T09:40:00.615Z,7.30
2024-02-05T09:41:00.363Z,7.31
2024-02-05T09:42:00.381Z,7.32
2024-02-05T09:43:00.412Z,7.33
2024-02-05T09:44:00.354Z,7.35
2024-02-05T09:45:00.371Z,7.38
2024-02-05T09:46:00.329Z,7.40
2024-02-05T09:47:00.300Z,7.43
2024-02-05T09:48:00.334Z,7.46
2024-02-05T09:49:00.450Z,7.51
2024-02-05T09:50:00.380Z,7.55
2024-02-05T09:51:00.433Z,7.59
2024-02-05T09:52:00.290Z,7.62
2024-02-05T09:53:00.223Z,7.66
2024-02-05T09:54:10.475Z,7.70
2024-02-05T09:55:00.381Z,7.72
2024-02-05T09:56:00.251Z,7.74
2024-02-05T09:57:00.157Z,7.74
2024-02-05T09:58:00.216Z,7.75
2024-02-05T09:59:00.167Z,7.76
2024-02-05T10:00:00.197Z,7.78
2024-02-05T10:01:00.281Z,7.80
2024-02-05T10:02:00.217Z,7.81
2024-02-05T10:03:00.152Z,7.81
2024-02-05T10:04:00.199Z,7.80
2024-02-05T10:05:00.394Z,7.81
2024-02-05T10:06:00.145Z,7.82
2024-02-05T10:07:01.065Z,7.85
2024-02-05T10:08:00.587Z,7.88
2024-02-05T10:09:00.003Z,7.91
2024-02-05T10:10:00.142Z,7.94
2024-02-05T10:11:00.021Z,7.96
2024-02-05T10:12:00.036Z,7.98
2024-02-05T10:13:00.136Z,7.99
2024-02-05T10:13:59.987Z,8.01
2024-02-05T10:15:00.056Z,8.04
2024-02-05T10:15:59.967Z,8.06
2024-02-05T10:17:03.638Z,8.07
2024-02-05T10:18:01.062Z,8.08
2024-02-05T10:18:59.972Z,8.09
2024-02-05T10:20:00.246Z,8.11
2024-02-05T10:20:59.891Z,8.15
2024-02-05T10:21:59.901Z,8.18
2024-02-05T10:22:59.897Z,8.21
2024-02-05T10:23:59.870Z,8.24
2024-02-05T10:24:59.917Z,8.27
2024-02-05T10:26:00.062Z,8.31
2024-02-05T10:27:00.020Z,8.35
2024-02-05T10:27:59.831Z,8.39
2024-02-05T10:28:59.795Z,8.42
2024-02-05T10:30:02.738Z,8.46
2024-02-05T10:31:00.114Z,8.48
2024-02-05T10:31:59.994Z,8.49
2024-02-05T10:32:59.891Z,8.52
2024-02-05T10:34:00.364Z,8.55
2024-02-05T10:34:59.813Z,8.58
2024-02-05T10:36:02.680Z,8.61
2024-02-05T10:36:59.787Z,8.63
2024-02-05T10:37:59.829Z,8.65
2024-02-05T10:38:59.806Z,8.65
2024-02-05T10:40:00.078Z,8.65
2024-02-05T10:40:59.630Z,8.65
2024-02-05T10:42:00.674Z,8.65
2024-02-05T10:42:59.664Z,8.66
2024-02-05T10:43:59.974Z,8.68
2024-02-05T10:44:59.693Z,8.71
2024-02-05T10:45:59.671Z,8.74
2024-02-05T10:46:59.540Z,8.78
2024-02-05T10:47:59.744Z,8.82
2024-02-05T10:48:59.753Z,8.85
2024-02-05T10:50:00.880Z,8.89
2024-02-05T10:50:59.529Z,8.94
2024-02-05T10:51:59.581Z,8.99
2024-02-05T10:52:59.695Z,9.04
2024-02-05T10:53:59.728Z,9.07
2024-02-05T10:55:00.097Z,9.09
2024-02-05T10:55:59.648Z,9.11
2024-02-05T10:56:59.444Z,9.11
2024-02-05T10:57:59.621Z,9.12
2024-02-05T10:58:59.379Z,9.13
2024-02-05T10:59:59.923Z,9.15
2024-02-05T11:00:59.500Z,9.18
2024-02-05T11:02:00.754Z,9.22
2024-02-05T11:03:00.502Z,9.25
2024-02-05T11:04:00.939Z,9.28
2024-02-05T11:04:59.400Z,9.30
2024-02-05T11:05:59.553Z,9.33
2024-02-05T11:07:00.108Z,9.35
2024-02-05T11:07:59.287Z,9.37
2024-02-05T11:08:59.553Z,9.39
2024-02-05T11:09:59.676Z,9.42
2024-02-05T11:10:59.343Z,9.46
2024-02-05T11:12:00.738Z,9.50
2024-02-05T11:12:59.407Z,9.55
2024-02-05T11:13:59.205Z,9.59
2024-02-05T11:14:59.193Z,9.64
2024-02-05T11:16:03.113Z,9.68
2024-02-05T11:16:59.553Z,9.72
2024-02-05T11:17:59.717Z,9.76
2024-02-05T11:19:00.229Z,9.79
2024-02-05T11:19:59.272Z,9.82
2024-02-05T11:20:59.163Z,9.84
2024-02-05T11:22:02.551Z,9.86
2024-02-05T11:22:59.114Z,9.88
2024-02-05T11:23:59.051Z,9.90
2024-02-05T11:24:59.157Z,9.93
2024-02-05T11:25:59.106Z,9.95
2024-02-05T11:26:59.109Z,9.97
2024-02-05T11:28:01.211Z,10.00
2024-02-05T11:28:59.017Z,10.03
2024-02-05T11:29:59.384Z,10.06
2024-02-05T11:30:59.082Z,10.09
2024-02-05T11:31:59.113Z,10.13
2024-02-05T11:32:59.056Z,10.16
2024-02-05T11:34:00.982Z,10.19
2024-02-05T11:34:59.018Z,10.23
2024-02-05T11:35:58.966Z,10.27
2024-02-05T11:36:58.910Z,10.31
2024-02-05T11:37:59.789Z,10.34
2024-02-05T11:38:59.080Z,10.37
2024-02-05T11:39:59.161Z,10.40
2024-02-05T11:41:01.830Z,10.42
2024-02-05T11:41:58.824Z,10.46
2024-02-05T11:42:58.942Z,10.48
2024-02-05T11:43:59.627Z,10.51
2024-02-05T11:44:58.853Z,10.53
2024-02-05T11:45:58.808Z,10.56
2024-02-05T11:46:58.804Z,10.58
2024-02-05T11:47:58.781Z,10.60
2024-02-05T11:48:59.032Z,10.62
2024-02-05T11:49:58.867Z,10.64
2024-02-05T11:50:58.763Z,10.66
2024-02-05T11:51:58.722Z,10.68
2024-02-05T11:52:58.687Z,10.72
2024-02-05T11:53:58.730Z,10.79
2024-02-05T11:54:58.706Z,10.84
2024-02-05T11:55:58.687Z,10.89
2024-02-05T11:56:58.729Z,10.92
2024-02-05T11:57:58.680Z,10.96
2024-02-05T11:58:58.607Z,10.98
2024-02-05T11:59:58.667Z,11.01
2024-02-05T12:00:59.208Z,11.04
2024-02-05T12:01:59.110Z,11.07
2024-02-05T12:03:01.091Z,11.10
2024-02-05T12:03:59.925Z,11.14
2024-02-05T12:04:59.404Z,11.17
2024-02-05T12:05:58.625Z,11.22
2024-02-05T12:06:59.387Z,11.26
2024-02-05T12:07:59.836Z,11.30
2024-02-05T12:08:58.858Z,11.32
2024-02-05T12:09:58.615Z,11.33
2024-02-05T12:10:58.512Z,11.33
2024-02-05T12:11:58.450Z,11.34
2024-02-05T12:13:09.595Z,11.35
2024-02-05T12:13:58.496Z,11.36
2024-02-05T12:14:59.463Z,11.39
2024-02-05T12:15:58.754Z,11.42
2024-02-05T12:16:58.553Z,11.44
2024-02-05T12:17:58.602Z,11.45
2024-02-05T12:19:11.011Z,11.46
2024-02-05T12:19:58.496Z,11.47
2024-02-05T12:20:58.336Z,11.47
2024-02-05T12:21:58.459Z,11.47
2024-02-05T12:22:58.376Z,11.47
2024-02-05T12:23:58.371Z,11.48
2024-02-05T12:24:58.504Z,11.50
2024-02-05T12:25:58.421Z,11.52
2024-02-05T12:26:58.903Z,11.54
2024-02-05T12:27:58.505Z,11.56
2024-02-05T12:28:58.387Z,11.58
2024-02-05T12:29:58.408Z,11.59
2024-02-05T12:30:58.716Z,11.60
2024-02-05T12:31:59.383Z,11.62
2024-02-05T12:32:58.408Z,11.65
2024-02-05T12:33:58.436Z,11.68
2024-02-05T12:34:58.453Z,11.72
2024-02-05T12:35:58.548Z,11.75
2024-02-05T12:36:58.305Z,11.77
2024-02-05T12:37:58.198Z,11.80
2024-02-05T12:38:58.422Z,11.84
2024-02-05T12:39:59.362Z,11.87
2024-02-05T12:40:58.393Z,11.89
2024-02-05T12:41:58.203Z,11.92
2024-02-05T12:42:58.676Z,11.95
2024-02-05T12:43:58.282Z,11.97
2024-02-05T12:45:09.390Z,11.99
2024-02-05T12:45:58.070Z,12.02
2024-02-05T12:46:58.821Z,12.03
2024-02-05T12:47:58.005Z,12.04
2024-02-05T12:48:58.106Z,12.05
2024-02-05T12:49:58.093Z,12.06
2024-02-05T12:50:58.066Z,12.07
2024-02-05T12:51:57.979Z,12.10
2024-02-05T12:52:57.969Z,12.11
2024-02-05T12:53:57.928Z,12.11
2024-02-05T12:54:57.931Z,12.10
2024-02-05T12:55:57.860Z,12.09
2024-02-05T12:56:57.897Z,12.10
2024-02-05T12:57:57.854Z,12.13
2024-02-05T12:58:57.856Z,12.16
2024-02-05T12:59:57.840Z,12.19
2024-02-05T13:00:57.942Z,12.22
2024-02-05T13:02:01.095Z,12.25
2024-02-05T13:02:57.793Z,12.28
2024-02-05T13:03:57.833Z,12.33
2024-02-05T13:04:58.026Z,12.40
2024-02-05T13:05:57.874Z,12.46
2024-02-05T13:06:57.905Z,12.52
2024-02-05T13:07:57.842Z,12.58
2024-02-05T13:08:57.712Z,12.63
2024-02-05T13:09:58.795Z,12.66
2024-02-05T13:10:57.857Z,12.67
2024-02-05T13:11:57.844Z,12.67
2024-02-05T13:12:58.418Z,12.66
2024-02-05T13:13:58.088Z,12.65